createdAt,value
2019-05-03T00:02:28.880Z,11.30
2019-05-03T00:05:08.495Z,10.33
2019-05-03T00:07:37.551Z,10.83
2019-05-03T00:10:07.915Z,10.67
2019-05-03T00:12:37.137Z,13.03
2019-05-03T00:15:16.596Z,11.63
2019-05-03T00:17:45.649Z,11.43
2019-05-03T00:20:14.762Z,12.40
2019-05-03T00:22:43.901Z,10.57
2019-05-03T00:25:13.618Z,9.63
2019-05-03T00:27:42.885Z,10.57
2019-05-03T00:30:12.119Z,9.87
2019-05-03T00:32:42.743Z,9.90
2019-05-03T00:35:15.766Z,8.73
2019-05-03T00:37:46.899Z,10.40
2019-05-03T00:40:26.660Z,9.23
2019-05-03T00:42:55.754Z,15.50
2019-05-03T00:45:24.824Z,10.50
2019-05-03T00:47:53.945Z,9.17
2019-05-03T00:50:23.391Z,9.93
2019-05-03T00:52:52.717Z,11.40
2019-05-03T00:55:22.076Z,9.50
2019-05-03T00:57:52.146Z,8.57
2019-05-03T01:00:21.799Z,9.43
2019-05-03T01:02:51.684Z,9.13
2019-05-03T01:05:22.695Z,8.93
2019-05-03T01:07:52.542Z,11.77
2019-05-03T01:10:22.625Z,8.90
2019-05-03T01:12:52.466Z,10.33
2019-05-03T01:15:31.949Z,9.73
2019-05-03T01:18:03.664Z,9.10
2019-05-03T01:20:33.156Z,8.47
2019-05-03T01:23:02.223Z,8.83
2019-05-03T01:25:35.221Z,8.97
2019-05-03T01:28:02.046Z,8.20
2019-05-03T01:30:32.055Z,9.00
2019-05-03T01:33:02.834Z,9.70
2019-05-03T01:35:32.382Z,9.03
2019-05-03T01:38:02.559Z,7.90
2019-05-03T01:40:32.568Z,7.60
2019-05-03T01:43:02.241Z,8.27
2019-05-03T01:45:31.902Z,9.80
2019-05-03T01:48:29.659Z,9.80
2019-05-03T01:51:26.769Z,7.97
2019-05-03T01:53:55.810Z,9.87
2019-05-03T01:56:24.919Z,11.40
2019-05-03T01:58:53.958Z,11.40
2019-05-03T02:01:46.455Z,8.67
2019-05-03T02:04:46.228Z,8.67
2019-05-03T02:07:15.282Z,8.20
2019-05-03T02:09:44.430Z,9.10
2019-05-03T02:12:13.500Z,9.33
2019-05-03T02:14:42.575Z,8.87
2019-05-03T02:17:12.428Z,8.20
2019-05-03T02:19:42.128Z,11.30
2019-05-03T02:22:12.104Z,8.87
2019-05-03T02:24:42.244Z,8.80
2019-05-03T02:27:12.762Z,8.63
2019-05-03T02:29:41.957Z,11.43
2019-05-03T02:32:13.268Z,8.77
2019-05-03T02:34:43.958Z,11.07
2019-05-03T02:37:13.852Z,9.87
2019-05-03T02:39:43.162Z,10.47
2019-05-03T02:42:12.324Z,13.37
2019-05-03T02:44:41.423Z,12.57
2019-05-03T02:47:37.228Z,11.50
2019-05-03T02:50:16.462Z,8.53
2019-05-03T02:52:45.763Z,10.40
2019-05-03T02:55:16.229Z,10.47
2019-05-03T02:57:46.686Z,11.27
2019-05-03T03:00:16.837Z,9.53
2019-05-03T03:02:45.972Z,10.17
2019-05-03T03:05:16.648Z,10.13
2019-05-03T03:07:46.289Z,11.23
2019-05-03T03:10:16.233Z,11.93
2019-05-03T03:12:46.498Z,11.50
2019-05-03T03:15:16.388Z,12.27
2019-05-03T03:17:45.837Z,13.33
2019-05-03T03:20:16.110Z,13.50
2019-05-03T03:22:45.844Z,13.87
2019-05-03T03:25:25.573Z,11.97
2019-05-03T03:27:55.673Z,14.10
2019-05-03T03:30:40.121Z,11.83
2019-05-03T03:33:17.163Z,11.20
2019-05-03T03:35:48.875Z,10.27
2019-05-03T03:38:16.360Z,9.17
2019-05-03T03:40:45.546Z,12.13
2019-05-03T03:43:15.700Z,7.53
2019-05-03T03:45:45.505Z,8.10
2019-05-03T03:48:15.842Z,8.03
2019-05-03T03:50:45.746Z,8.07
2019-05-03T03:53:15.472Z,9.57
2019-05-03T03:55:47.258Z,9.90
2019-05-03T03:58:22.548Z,7.60
2019-05-03T04:00:47.246Z,7.07
2019-05-03T04:03:16.400Z,7.37
2019-05-03T04:05:46.788Z,6.50
2019-05-03T04:08:16.453Z,7.53
2019-05-03T04:10:46.405Z,7.53
2019-05-03T04:13:16.259Z,7.80
2019-05-03T04:16:01.461Z,7.77
2019-05-03T04:18:40.269Z,8.57
2019-05-03T04:21:09.316Z,10.10
2019-05-03T04:23:38.627Z,10.10
2019-05-03T04:26:07.659Z,7.53
2019-05-03T04:28:37.270Z,9.77
2019-05-03T04:31:06.451Z,9.13
2019-05-03T04:33:35.968Z,7.17
2019-05-03T04:36:05.642Z,8.00
2019-05-03T04:38:35.709Z,8.90
2019-05-03T04:41:05.902Z,9.33
2019-05-03T04:43:35.741Z,8.70
2019-05-03T04:46:09.649Z,8.70
2019-05-03T04:48:38.802Z,11.10
2019-05-03T04:51:07.995Z,7.60
2019-05-03T04:53:38.729Z,10.43
2019-05-03T04:56:07.751Z,7.17
2019-05-03T04:58:36.810Z,5.40
2019-05-03T05:01:06.886Z,5.80
2019-05-03T05:03:36.480Z,7.03
2019-05-03T05:06:06.533Z,7.50
2019-05-03T05:08:36.170Z,7.00
2019-05-03T05:11:09.694Z,8.87
2019-05-03T05:13:36.277Z,7.50
2019-05-03T05:16:06.086Z,6.67
2019-05-03T05:18:40.311Z,9.97
2019-05-03T05:21:22.775Z,6.63
2019-05-03T05:24:00.337Z,6.63
2019-05-03T05:26:37.153Z,6.20
2019-05-03T05:29:09.400Z,8.00
2019-05-03T05:31:38.543Z,8.87
2019-05-03T05:34:08.887Z,8.47
2019-05-03T05:36:38.088Z,5.17
2019-05-03T05:39:07.292Z,11.20
2019-05-03T05:41:36.360Z,9.60
2019-05-03T05:44:05.573Z,9.37
2019-05-03T05:46:41.468Z,10.20
2019-05-03T05:49:14.688Z,6.30
2019-05-03T05:51:44.509Z,5.07
2019-05-03T05:54:14.407Z,7.87
2019-05-03T05:57:08.366Z,7.80
2019-05-03T05:59:49.069Z,7.47
2019-05-03T06:02:18.856Z,8.47
2019-05-03T06:04:47.922Z,6.77
2019-05-03T06:07:48.247Z,8.17
2019-05-03T06:10:24.893Z,7.03
2019-05-03T06:13:06.550Z,6.83
2019-05-03T06:15:51.555Z,5.77
2019-05-03T06:18:25.661Z,7.20
2019-05-03T06:21:11.261Z,7.40
2019-05-03T06:23:45.343Z,5.50
2019-05-03T06:26:32.013Z,4.23
2019-05-03T06:29:01.141Z,5.50
2019-05-03T06:31:37.273Z,5.40
2019-05-03T06:34:06.409Z,4.70
2019-05-03T06:36:36.189Z,3.30
2019-05-03T06:39:08.390Z,4.73
2019-05-03T06:41:37.677Z,7.57
2019-05-03T06:44:06.874Z,6.13
2019-05-03T06:46:49.342Z,3.43
2019-05-03T06:49:18.429Z,6.10
2019-05-03T06:51:49.688Z,6.43
2019-05-03T06:54:20.574Z,8.17
2019-05-03T06:56:49.887Z,4.53
2019-05-03T06:59:35.748Z,6.17
2019-05-03T07:02:18.233Z,3.93
2019-05-03T07:04:49.382Z,9.90
2019-05-03T07:07:35.462Z,5.73
2019-05-03T07:10:30.689Z,6.90
2019-05-03T07:13:00.710Z,6.83
2019-05-03T07:15:36.828Z,6.53
2019-05-03T07:18:06.097Z,6.57
2019-05-03T07:20:54.431Z,3.40
2019-05-03T07:23:24.480Z,6.17
2019-05-03T07:25:55.190Z,7.37
2019-05-03T07:28:24.795Z,6.40
2019-05-03T07:30:54.545Z,4.57
2019-05-03T07:33:32.033Z,4.57
2019-05-03T07:36:01.165Z,4.53
2019-05-03T07:38:30.325Z,5.10
2019-05-03T07:40:59.454Z,3.73
2019-05-03T07:43:28.547Z,4.93
2019-05-03T07:45:57.695Z,3.80
2019-05-03T07:48:29.953Z,5.10
2019-05-03T07:50:59.293Z,3.47
2019-05-03T07:53:28.565Z,2.83
2019-05-03T07:56:11.037Z,5.73
2019-05-03T07:59:02.891Z,4.67
2019-05-03T08:01:29.959Z,3.67
2019-05-03T08:03:59.138Z,3.83
2019-05-03T08:06:28.242Z,2.50
2019-05-03T08:12:37.321Z,3.00
2019-05-03T08:15:06.597Z,4.33
2019-05-03T08:17:35.716Z,5.00
2019-05-03T08:20:05.246Z,5.77
2019-05-03T08:22:34.591Z,4.30
2019-05-03T08:25:05.429Z,4.77
2019-05-03T08:27:35.428Z,11.87
2019-05-03T08:30:06.932Z,4.90
2019-05-03T08:32:58.836Z,4.67
2019-05-03T08:35:36.451Z,5.37
2019-05-03T08:38:05.487Z,2.67
2019-05-03T08:40:39.894Z,5.23
2019-05-03T08:43:09.026Z,4.80
2019-05-03T08:45:38.168Z,4.93
2019-05-03T08:48:07.227Z,5.17
2019-05-03T08:50:39.059Z,3.23
2019-05-03T08:53:08.080Z,3.47
2019-05-03T08:55:37.288Z,4.87
2019-05-03T08:58:06.326Z,4.73
2019-05-03T09:00:37.864Z,2.90
2019-05-03T09:03:06.982Z,6.43
2019-05-03T09:05:36.208Z,4.83
2019-05-03T09:08:05.745Z,3.00
2019-05-03T09:10:47.430Z,2.83
2019-05-03T09:13:21.019Z,2.97
2019-05-03T09:15:50.770Z,2.80
2019-05-03T09:18:19.861Z,5.30
2019-05-03T09:20:48.899Z,2.80
2019-05-03T09:23:23.235Z,4.20
2019-05-03T09:25:51.001Z,3.73
2019-05-03T09:28:20.078Z,4.00
2019-05-03T09:30:49.165Z,5.10
2019-05-03T09:33:18.245Z,3.40
2019-05-03T09:35:47.310Z,3.73
2019-05-03T09:38:16.469Z,4.43
2019-05-03T09:40:45.631Z,3.87
2019-05-03T09:43:15.192Z,4.47
2019-05-03T09:45:45.750Z,4.73
2019-05-03T09:48:15.217Z,4.00
2019-05-03T09:50:45.228Z,3.27
2019-05-03T09:53:15.910Z,6.13
2019-05-03T09:55:45.085Z,3.27
2019-05-03T09:58:15.368Z,4.67
2019-05-03T10:00:45.197Z,4.93
2019-05-03T10:03:14.233Z,4.53
2019-05-03T10:05:45.680Z,6.07
2019-05-03T10:08:15.796Z,4.87
2019-05-03T10:11:02.568Z,6.97
2019-05-03T10:13:35.207Z,5.93
2019-05-03T10:16:05.832Z,4.37
2019-05-03T10:18:34.960Z,5.40
2019-05-03T10:21:05.366Z,3.77
2019-05-03T10:23:42.373Z,4.10
2019-05-03T10:26:11.704Z,6.37
2019-05-03T10:28:40.799Z,5.27
2019-05-03T10:31:09.913Z,5.57
2019-05-03T10:34:05.765Z,6.67
2019-05-03T10:36:35.621Z,6.07
2019-05-03T10:39:05.737Z,5.47
2019-05-03T10:41:34.932Z,5.73
2019-05-03T10:44:06.017Z,5.07
2019-05-03T10:46:35.813Z,4.63
2019-05-03T10:49:05.745Z,4.30
2019-05-03T10:51:39.818Z,5.73
2019-05-03T10:54:08.901Z,8.43
2019-05-03T10:56:46.888Z,4.03
2019-05-03T10:59:16.639Z,6.37
2019-05-03T11:27:04.305Z,4.50
2019-05-03T11:29:35.394Z,3.43
2019-05-03T11:32:16.802Z,3.43
2019-05-03T11:34:57.838Z,5.23
2019-05-03T11:37:52.889Z,4.17
2019-05-03T11:40:21.984Z,3.60
2019-05-03T11:42:55.281Z,5.10
2019-05-03T11:45:24.688Z,3.87
2019-05-03T11:47:55.049Z,5.87
2019-05-03T11:50:25.358Z,3.33
2019-05-03T11:52:56.019Z,5.50
2019-05-03T11:55:27.476Z,3.53
2019-05-03T11:57:58.073Z,5.50
2019-05-03T12:00:34.339Z,4.37
2019-05-03T12:03:15.609Z,3.17
2019-05-03T12:05:48.274Z,4.03
2019-05-03T12:08:17.542Z,3.03
2019-05-03T12:14:36.804Z,3.00
2019-05-03T12:17:18.963Z,2.97
2019-05-03T12:19:41.748Z,4.97
2019-05-03T12:22:12.317Z,3.07
2019-05-03T12:24:42.100Z,4.10
2019-05-03T12:27:11.834Z,3.67
2019-05-03T12:29:40.900Z,5.43
2019-05-03T12:32:09.954Z,4.07
2019-05-03T12:34:39.049Z,4.13
2019-05-03T12:37:08.088Z,2.97
2019-05-03T12:39:37.098Z,3.97
2019-05-03T12:42:06.213Z,5.20
2019-05-03T12:44:35.555Z,2.80
2019-05-03T12:47:06.049Z,6.03
2019-05-03T12:49:35.998Z,4.40
2019-05-03T12:52:05.458Z,4.70
2019-05-03T12:54:35.676Z,4.40
2019-05-03T12:57:05.219Z,3.57
2019-05-03T13:00:11.206Z,5.53
2019-05-03T13:02:46.938Z,4.27
2019-05-03T13:05:15.996Z,5.23
2019-05-03T13:07:49.931Z,4.70
2019-05-03T13:10:22.454Z,4.87
2019-05-03T13:12:53.157Z,4.97
2019-05-03T13:15:20.836Z,6.80
2019-05-03T13:17:49.914Z,7.13
2019-05-03T13:20:19.041Z,8.00
2019-05-03T13:22:48.208Z,7.87
2019-05-03T13:25:18.837Z,6.33
2019-05-03T13:27:47.934Z,5.93
2019-05-03T13:30:17.193Z,6.00
2019-05-03T13:32:46.259Z,8.60
2019-05-03T13:35:15.316Z,5.67
2019-05-03T13:37:45.312Z,5.83
2019-05-03T13:40:14.839Z,6.70
2019-05-03T13:42:56.316Z,6.20
2019-05-03T13:45:14.746Z,6.87
2019-05-03T13:47:44.770Z,4.27
2019-05-03T13:50:15.231Z,4.97
2019-05-03T13:52:45.311Z,5.13
2019-05-03T13:55:14.656Z,3.60
2019-05-03T13:57:45.843Z,4.40
2019-05-03T14:00:15.268Z,6.20
2019-05-03T14:02:44.950Z,4.93
2019-05-03T14:05:15.488Z,8.77
2019-05-03T14:07:44.822Z,4.37
2019-05-03T14:10:13.777Z,4.57
2019-05-03T14:12:43.034Z,4.40
2019-05-03T14:15:12.131Z,3.63
2019-05-03T14:17:41.203Z,5.17
2019-05-03T14:20:47.314Z,4.10
2019-05-03T14:23:16.417Z,4.57
2019-05-03T14:25:45.475Z,6.43
2019-05-03T14:28:14.713Z,4.87
2019-05-03T14:30:45.426Z,6.67
2019-05-03T14:33:14.705Z,5.37
2019-05-03T14:35:45.214Z,5.57
2019-05-03T14:38:15.102Z,4.07
2019-05-03T14:40:44.917Z,5.23
2019-05-03T14:43:15.468Z,4.30
2019-05-03T14:45:44.728Z,4.63
2019-05-03T14:48:15.222Z,4.40
2019-05-03T14:50:45.584Z,4.70
2019-05-03T14:53:14.933Z,7.73
2019-05-03T14:55:55.223Z,7.20
2019-05-03T14:58:49.222Z,4.43
2019-05-03T15:01:25.844Z,6.77
2019-05-03T15:03:55.071Z,3.43
2019-05-03T15:06:24.951Z,4.13
2019-05-03T15:08:54.714Z,4.07
2019-05-03T15:11:23.961Z,4.63
2019-05-03T15:13:54.954Z,4.73
2019-05-03T15:16:25.017Z,6.20
2019-05-03T15:18:54.834Z,7.40
2019-05-03T15:21:25.200Z,6.43
2019-05-03T15:23:54.812Z,6.33
2019-05-03T15:26:24.830Z,8.03
2019-05-03T15:28:55.451Z,6.30
2019-05-03T15:31:24.682Z,4.93
2019-05-03T15:33:55.511Z,4.60
2019-05-03T15:36:24.823Z,4.57
2019-05-03T15:38:55.213Z,6.37
2019-05-03T15:41:25.199Z,6.37
2019-05-03T15:44:00.109Z,5.93
2019-05-03T15:46:51.270Z,5.30
2019-05-03T15:49:20.431Z,5.40
2019-05-03T15:51:49.562Z,8.10
2019-05-03T15:54:18.612Z,5.07
2019-05-03T15:56:47.645Z,5.10
2019-05-03T15:59:16.714Z,7.17
2019-05-03T16:01:45.785Z,5.70
2019-05-03T16:04:14.872Z,4.77
2019-05-03T16:06:44.798Z,4.57
2019-05-03T16:09:15.246Z,6.43
2019-05-03T16:11:45.089Z,5.97
2019-05-03T16:14:15.310Z,7.37
2019-05-03T16:16:45.109Z,6.50
2019-05-03T16:19:14.691Z,5.07
2019-05-03T16:21:45.286Z,7.27
2019-05-03T16:24:15.436Z,6.03
2019-05-03T16:27:02.146Z,8.53
2019-05-03T16:29:31.210Z,4.43
2019-05-03T16:32:00.273Z,6.80
2019-05-03T16:34:29.442Z,4.07
2019-05-03T16:36:58.469Z,7.07
2019-05-03T16:39:27.598Z,4.57
2019-05-03T16:41:56.641Z,6.13
2019-05-03T16:44:25.753Z,6.87
2019-05-03T16:46:55.415Z,5.43
2019-05-03T16:49:24.687Z,5.50
2019-05-03T16:51:54.913Z,7.03
2019-05-03T16:54:25.457Z,5.70
2019-05-03T16:56:54.992Z,8.00
2019-05-03T16:59:24.721Z,5.93
2019-05-03T17:01:55.177Z,6.93
2019-05-03T17:04:29.036Z,5.03
2019-05-03T17:07:17.032Z,4.63
2019-05-03T17:09:54.414Z,5.83
2019-05-03T17:12:28.097Z,7.10
2019-05-03T17:14:57.271Z,8.63
2019-05-03T17:17:26.386Z,6.30
2019-05-03T17:19:55.445Z,7.20
2019-05-03T17:22:25.189Z,8.03
2019-05-03T17:24:54.616Z,8.90
2019-05-03T17:27:24.981Z,6.27
2019-05-03T17:29:55.257Z,4.93
2019-05-03T17:32:24.780Z,5.53
2019-05-03T17:34:54.899Z,7.90
2019-05-03T17:37:25.716Z,5.33
2019-05-03T17:40:14.733Z,6.37
2019-05-03T17:43:00.472Z,7.13
2019-05-03T17:45:35.107Z,6.13
2019-05-03T17:48:04.611Z,8.37
2019-05-03T17:50:34.780Z,6.73
2019-05-03T17:53:23.041Z,8.80
2019-05-03T17:55:57.892Z,7.97
2019-05-03T17:58:32.303Z,4.97
2019-05-03T18:01:32.446Z,5.77
2019-05-03T18:04:09.468Z,6.73
2019-05-03T18:06:45.249Z,5.00
2019-05-03T18:09:23.334Z,7.80
2019-05-03T18:11:58.606Z,5.03
2019-05-03T18:14:27.683Z,9.77
2019-05-03T18:16:56.766Z,6.83
2019-05-03T18:19:25.905Z,5.17
2019-05-03T18:21:55.463Z,9.17
2019-05-03T18:24:24.790Z,5.20
2019-05-03T18:26:54.010Z,9.83
2019-05-03T18:29:25.129Z,7.13
2019-05-03T18:31:55.068Z,8.07
2019-05-03T18:34:24.950Z,5.30
2019-05-03T18:36:54.274Z,6.23
2019-05-03T18:39:25.111Z,4.47
2019-05-03T18:41:54.432Z,7.53
2019-05-03T18:44:34.694Z,4.83
2019-05-03T18:47:07.626Z,5.80
2019-05-03T18:49:36.713Z,5.90
2019-05-03T18:52:05.810Z,6.27
2019-05-03T18:54:35.181Z,4.87
2019-05-03T18:57:05.087Z,4.90
2019-05-03T18:59:34.345Z,6.30
2019-05-03T19:02:05.386Z,6.50
2019-05-03T19:04:41.327Z,4.80
2019-05-03T19:07:21.515Z,6.73
2019-05-03T19:10:15.650Z,8.13
2019-05-03T19:12:55.237Z,5.93
2019-05-03T19:15:25.098Z,8.53
2019-05-03T19:18:01.113Z,6.57
2019-05-03T19:20:30.269Z,5.77
2019-05-03T19:22:59.482Z,6.87
2019-05-03T19:25:28.631Z,7.40
2019-05-03T19:27:57.689Z,6.70
2019-05-03T19:30:26.758Z,7.77
2019-05-03T19:32:55.822Z,7.63
2019-05-03T19:35:27.625Z,5.77
2019-05-03T19:37:57.573Z,8.17
2019-05-03T19:40:26.956Z,6.67
2019-05-03T19:42:56.204Z,4.63
2019-05-03T19:45:25.535Z,4.93
2019-05-03T19:47:55.208Z,6.70
2019-05-03T19:50:27.119Z,9.03
2019-05-03T19:53:14.512Z,6.80
2019-05-03T19:55:44.861Z,3.87
2019-05-03T19:58:14.791Z,8.77
2019-05-03T20:01:03.024Z,7.90
2019-05-03T20:03:38.799Z,5.20
2019-05-03T20:06:25.202Z,4.57
2019-05-03T20:08:59.279Z,4.70
2019-05-03T20:11:28.352Z,5.23
2019-05-03T20:13:57.520Z,9.20
2019-05-03T20:16:26.598Z,7.80
2019-05-03T20:18:55.690Z,6.80
2019-05-03T20:21:25.294Z,6.33
2019-05-03T20:23:55.565Z,5.37
2019-05-03T20:26:25.300Z,6.40
2019-05-03T20:28:55.297Z,8.00
2019-05-03T20:31:25.254Z,6.53
2019-05-03T20:33:54.875Z,7.90
2019-05-03T20:36:24.141Z,6.30
2019-05-03T20:38:54.903Z,10.63
2019-05-03T20:41:25.538Z,10.97
2019-05-03T20:44:07.564Z,7.97
2019-05-03T20:46:45.726Z,8.37
2019-05-03T20:49:15.278Z,7.73
2019-05-03T20:51:45.042Z,7.63
2019-05-03T20:54:15.374Z,8.70
2019-05-03T20:56:45.567Z,7.00
2019-05-03T20:59:17.167Z,10.20
2019-05-03T21:01:46.290Z,9.37
2019-05-03T21:04:15.550Z,6.53
2019-05-03T21:06:45.506Z,7.80
2019-05-03T21:09:14.988Z,6.70
2019-05-03T21:11:44.804Z,8.07
2019-05-03T21:14:15.520Z,8.23
2019-05-03T21:17:07.051Z,7.10
2019-05-03T21:19:50.589Z,7.60
2019-05-03T21:22:26.049Z,7.57
2019-05-03T21:25:06.312Z,7.50
2019-05-03T21:27:35.222Z,8.10
2019-05-03T21:30:05.071Z,7.87
2019-05-03T21:32:35.167Z,8.57
2019-05-03T21:35:05.436Z,7.03
2019-05-03T21:37:34.892Z,7.90
2019-05-03T21:40:05.141Z,7.80
2019-05-03T21:42:35.056Z,7.27
2019-05-03T21:45:04.854Z,7.33
2019-05-03T21:47:48.621Z,7.90
2019-05-03T21:50:19.161Z,7.10
2019-05-03T21:52:48.236Z,5.83
2019-05-03T21:55:17.361Z,6.23
2019-05-03T21:57:46.694Z,7.93
2019-05-03T22:00:16.667Z,6.37
2019-05-03T22:02:45.754Z,7.13
2019-05-03T22:05:16.488Z,6.30
2019-05-03T22:07:45.762Z,8.87
2019-05-03T22:10:15.097Z,6.73
2019-05-03T22:12:44.319Z,9.83
2019-05-03T22:15:21.191Z,7.17
2019-05-03T22:18:15.282Z,7.97
2019-05-03T22:20:54.925Z,6.83
2019-05-03T22:23:42.288Z,9.33
2019-05-03T22:26:11.357Z,8.77
2019-05-03T22:28:40.472Z,8.33
2019-05-03T22:31:09.500Z,8.13
2019-05-03T22:33:38.548Z,8.60
2019-05-03T22:36:09.056Z,7.37
2019-05-03T22:38:38.523Z,7.50
2019-05-03T22:41:07.733Z,8.77
2019-05-03T22:43:36.745Z,7.57
2019-05-03T22:46:05.759Z,9.63
2019-05-03T22:48:34.829Z,7.87
2019-05-03T22:51:04.839Z,9.60
2019-05-03T22:53:34.363Z,8.20
2019-05-03T22:56:04.876Z,11.57
2019-05-03T22:58:35.464Z,7.40
2019-05-03T23:01:04.596Z,10.50
2019-05-03T23:03:44.619Z,11.00
2019-05-03T23:06:20.345Z,8.33
2019-05-03T23:08:44.016Z,10.43
2019-05-03T23:11:13.044Z,8.47
2019-05-03T23:13:42.075Z,9.50
2019-05-03T23:16:11.066Z,9.70
2019-05-03T23:18:41.036Z,13.77
2019-05-03T23:21:15.793Z,11.53
2019-05-03T23:23:54.972Z,11.13
2019-05-03T23:26:25.405Z,11.77
2019-05-03T23:28:55.101Z,13.20
2019-05-03T23:31:25.167Z,10.40
2019-05-03T23:33:54.707Z,12.40
2019-05-03T23:36:33.100Z,12.53
2019-05-03T23:38:54.752Z,10.60
2019-05-03T23:41:24.530Z,13.00
2019-05-03T23:43:53.750Z,11.57
2019-05-03T23:46:28.787Z,14.53
2019-05-03T23:48:57.896Z,10.97
2019-05-03T23:51:44.793Z,10.37
2019-05-03T23:54:14.967Z,12.43
2019-05-03T23:56:45.817Z,11.17
2019-05-03T23:59:15.136Z,10.93
